CheckWX is a tool to help pilots better visualize weather data.  It is not intended as a substitute for an official pre-flight weather briefing.

08:01:54 UTC

CYEK TAF
Arviat Airport
Arviat, Canada
TAF CYEK 190538Z 1906/1918 22015KT P6SM -SN SCT005 OVC025 TEMPO 1906/1915 4SM -SN BKN005 OVC020 BECMG 1910/1912 23008KT FM191500 02020KT P6SM SCT008 TEMPO 1915/1918 2SM BLSN BKN008 RMK FCST BASED ON AUTO OBS. NXT FCST BY 191200Z

Mar-19@
06:00 UTC

Mar-19 @ 06:00 UTC

Mar-19@
10:00 UTC

Mar-19 @ 10:00 UTC

TAF CYEK 190538Z 1906/1918 22015KT P6SM -SN SCT005 OVC025
Wind
  • 220° at 15 KTS
Conditions
Light Snow
Cloud Levels
  • Scattered at 500' AGL
  • Overcast at 2,500' AGL

Mar-19@
06:00 UTC

Mar-19 @ 06:00 UTC

Mar-19@
15:00 UTC

Mar-19 @ 15:00 UTC

TEMPO 1906/1915 4SM -SN BKN005 OVC020

Temporary

Temporary Changes expected for less than half the time period

Conditions
Light Snow
Cloud Levels
  • Broken at 500' AGL
  • Overcast at 2,000' AGL

Mar-19@
10:00 UTC

Mar-19 @ 10:00 UTC

Mar-19@
15:00 UTC

Mar-19 @ 15:00 UTC

BECMG 1910/1912 23008KT

Becoming

Becoming Conditions expected by Tue, Mar 19, 2019 @ 12:00 UTC

Wind
  • 230° at 8 KTS
Conditions
Light Snow
Cloud Levels
  • Scattered at 500' AGL
  • Overcast at 2,500' AGL

Mar-19@
15:00 UTC

Mar-19 @ 15:00 UTC

Mar-19@
18:00 UTC

Mar-19 @ 18:00 UTC

FM191500 02020KT P6SM SCT008

From

From Standard forecast or significant change

Wind
  • 020° at 20 KTS
Cloud Levels
  • Scattered at 800' AGL

Mar-19@
15:00 UTC

Mar-19 @ 15:00 UTC

Mar-19@
18:00 UTC

Mar-19 @ 18:00 UTC

TEMPO 1915/1918 2SM BLSN BKN008 RMK FCST BASED ON AUTO OBS. NXT FCST BY 191200Z

Temporary

Temporary Changes expected for less than half the time period

Conditions
Blowing Snow
Cloud Levels
  • Broken at 800' AGL